Bda Corea, Puerto Rico
Current Conditions -  °F | °C
As of 12:56 AM on Sunday 21 Dec 2014 (Local Time) from TJSJ Reporting Station
Scattered Clouds Scattered Clouds  
Wind Chill: 77°   Ceiling: Unl
Heat Index: 78°   Visibility: 10mi
Dew Point: 72°   Wind: 6mph
Humidity: 84%   Direction: 100°E
Pressure: 30.04"   Gusts: NA
Location:  18.4144°N, 66.3319°W
Report Text: TJSJ 210456Z 10005KT 10SM SCT026 25/22 A3004 RMK AO2 SLP171 T02500222
Loading
Personal Weather Stations






























Interactive Weather Map New forecast layout! Learn more

10-Day Weather Forecast

Advertisements
Track Severe Weather on mobile